• Join FlightAware (Why Join?)
  • Login
  • US Flag 
09:12AM EST


 

Airport Tracker/Info


-or-


 

Live Flight TrackerFlight Track Log ✈ ASQ4209 ✈ 21-May-2013 ✈ KIAH - KTYS

Flight Track Log - Related Links

Times and Time Zones

All times are in EDT time to prevent confusion due to time zone crossing. See the ASQ4209 flight status page for this flight to view local times or setup timezone preferences in your user account.

Time Position Orientation Groundspeed Altitude Reporting Facility
EDT Latitude Longitude Course Direction KTS MPH feet Rate Location/Type
10:35PM 29.9594 -95.3414 90° East 162 186 700  Level Houston Center
10:36PM 29.9325 -95.3014 128° Southeast 207 238 1,900 1,200 Climbing Houston Center
10:37PM 29.9097 -95.2597 122° Southeast 224 258 2,700 1,560 Climbing Houston Center
10:38PM 29.9834 -94.9298 90° East  Level FlightAware Approximate
10:38PM 29.8719 -95.1892 122° Southeast 249 287 4,800  Level Houston Center
10:39PM 29.9834 -94.7952 90° East  Level FlightAware Approximate
10:39PM 29.8361 -95.1231 122° Southeast 245 282 6,900  Level Houston Center
10:39PM 29.8181 -95.0864 120° Southeast 269 310 7,700 1,980 Climbing Houston Center
10:40PM 29.9833 -94.6607 90° East  Level FlightAware Approximate
10:40PM 29.8053 -95.0236 103° East 281 323 9,000  Level Houston Center
10:40PM 29.8056 -94.9964 89° East 296 341 9,600 1,140 Climbing Houston Center
10:41PM 29.9834 -94.5262 90° East  Level FlightAware Approximate
10:41PM 29.8064 -94.9264 89° East 301 346 10,200  Level Houston Center
10:42PM 29.8053 -94.8164 91° East 337 388 11,100 1,380 Climbing Houston Center
10:43PM 29.8272 -94.7114 76° East 341 392 13,100 1,680 Climbing Houston Center
10:44PM 29.8681 -94.6097 65° Northeast 349 402 14,600 1,380 Climbing Houston Center
10:45PM 29.9111 -94.5083 64° Northeast 353 406 16,000 1,440 Climbing Houston Center
10:46PM 29.9578 -94.3967 64° Northeast 360 414 17,600 1,440 Climbing Houston Center
10:47PM 29.9906 -94.2864 71° East 366 421 19,000 1,140 Climbing Houston Center
10:48PM 30.0064 -94.1644 81° East 384 442 20,000 960 Climbing Houston Center
10:49PM 30.0231 -94.0392 81° East 395 455 21,000 960 Climbing Houston Center
10:50PM 30.0406 -93.9100 81° East 407 468 22,000 960 Climbing Houston Center
10:51PM 30.0569 -93.7789 82° East 415 478 23,000 1,020 Climbing Houston Center
10:52PM 30.0769 -93.6200 82° East 420 483 24,200 1,020 Climbing Houston Center
10:53PM 30.0925 -93.4861 82° East 427 491 25,100 900 Climbing Houston Center
10:54PM 30.1089 -93.3514 82° East 431 496 26,100 840 Climbing Houston Center
10:55PM 30.1264 -93.2164 81° East 431 496 26,900 900 Climbing Houston Center
10:56PM 30.1547 -93.0825 76° East 436 502 28,000 1,020 Climbing Houston Center
10:57PM 30.2158 -92.9683 58° Northeast 424 488 29,100 1,140 Climbing Houston Center
10:58PM 30.2894 -92.8333 58° Northeast 418 481 30,400 1,080 Climbing Houston Center
10:59PM 30.3500 -92.7217 58° Northeast 413 475 31,400 1,020 Climbing Houston Center
11:00PM 30.4106 -92.6100 58° Northeast 410 472 32,500 1,020 Climbing Houston Center
11:01PM 30.4706 -92.5000 58° Northeast 406 467 33,500 1,080 Climbing Houston Center
11:02PM 30.5342 -92.3797 58° Northeast 402 463 34,700 720 Climbing Houston Center
11:03PM 30.5931 -92.2706 58° Northeast 403 464 35,000 120 Climbing Houston Center
11:04PM 30.6547 -92.1569 58° Northeast 417 480 35,000  Level Houston Center
11:05PM 30.7197 -92.0372 58° Northeast 437 503 35,000  Level Houston Center
11:06PM 30.7828 -91.9186 58° Northeast 437 503 35,000  Level Houston Center
11:07PM 30.8464 -91.8003 58° Northeast 433 498 35,000 -480 Level Houston Center
11:09PM 30.9103 -91.6803 58° Northeast 438 504 34,100 -1,020 Descending Houston Center
11:10PM 30.9889 -91.5314 58° Northeast 451 519 33,000 -600 Descending Houston Center
11:11PM 31.0564 -91.4047 58° Northeast 461 531 32,900  Descending Houston Center
11:12PM 31.1236 -91.2769 58° Northeast 463 533 33,000  Climbing Houston Center
11:13PM 31.1889 -91.1497 59° Northeast 458 527 33,000  Level Houston Center
11:14PM 31.2550 -91.0239 58° Northeast 455 524 33,000  Level Houston Center
11:15PM 31.3208 -90.8981 58° Northeast 454 522 33,000  Level Houston Center
11:16PM 31.3861 -90.7733 58° Northeast 451 519 33,000  Level Houston Center
11:17PM 31.4503 -90.6475 59° Northeast 449 517 33,000  Level Houston Center
11:18PM 31.5158 -90.5222 58° Northeast 449 517 33,000  Level Houston Center
11:19PM 31.5794 -90.3953 60° Northeast 449 517 33,000  Level Houston Center
11:20PM 31.6583 -90.2425 59° Northeast 456 525 33,000  Level Houston Center
11:21PM 31.7236 -90.1142 59° Northeast 457 526 33,000  Level Houston Center
11:22PM 31.7892 -89.9858 59° Northeast 458 527 33,000  Level Houston Center
11:23PM 31.8542 -89.8581 59° Northeast 456 525 33,000  Level Houston Center
11:23PM 31.8919 -89.7825 59° Northeast 450 518 33,000  Level Memphis Center
11:24PM 31.9558 -89.6572 59° Northeast 450 518 33,000  Level Memphis Center
11:25PM 32.0200 -89.5292 59° Northeast 450 518 33,000  Level Memphis Center
11:26PM 32.0836 -89.4036 59° Northeast 450 518 33,000  Level Memphis Center
11:27PM 32.1494 -89.2753 59° Northeast 450 518 33,000  Level Memphis Center
11:28PM 32.2131 -89.1444 60° Northeast 450 518 33,000  Level Memphis Center
11:29PM 32.2742 -89.0158 61° Northeast 450 518 33,000  Level Memphis Center
11:30PM 32.3436 -88.8747 60° Northeast 450 518 33,000  Level Memphis Center
11:31PM 32.4153 -88.7503 56° Northeast 450 518 33,000  Level Memphis Center
11:32PM 32.4972 -88.6356 50° Northeast 456 525 33,000  Level Memphis Center
11:33PM 32.5769 -88.5206 51° Northeast 456 525 33,000  Level Memphis Center
11:34PM 32.6586 -88.4031 50° Northeast 456 525 33,000  Level Memphis Center
11:35PM 32.7361 -88.2878 51° Northeast 456 525 33,000  Level Memphis Center
11:37PM 32.8589 -88.1017 52° Northeast 452 520 33,000  Level Atlanta Center
11:38PM 32.9422 -87.9842 50° Northeast 457 526 33,000  Level Atlanta Center
11:39PM 33.0189 -87.8689 52° Northeast 457 526 33,000  Level Atlanta Center
11:40PM 33.0994 -87.7533 50° Northeast 457 526 33,000  Level Atlanta Center
11:41PM 33.1761 -87.6375 52° Northeast 457 526 33,000  Level Atlanta Center
11:42PM 33.2547 -87.5167 52° Northeast 457 526 33,000  Level Atlanta Center
11:43PM 33.3372 -87.3981 50° Northeast 457 526 33,000  Level Atlanta Center
11:44PM 33.4156 -87.2792 52° Northeast 457 526 33,000  Level Atlanta Center
11:45PM 33.4939 -87.1625 51° Northeast 457 526 33,000  Level Atlanta Center
11:46PM 33.5653 -87.0528 52° Northeast 457 526 33,000  Level Atlanta Center
11:47PM 33.6453 -86.9358 51° Northeast 457 526 33,000  Level Atlanta Center
11:48PM 33.7272 -86.8214 49° Northeast 457 526 33,000  Level Atlanta Center
11:49PM 33.8111 -86.7089 48° Northeast 452 520 33,000  Level Atlanta Center
11:50PM 33.8972 -86.5939 48° Northeast 451 519 33,000  Level Atlanta Center
11:51PM 33.9786 -86.4864 48° Northeast 451 519 33,000  Level Atlanta Center
11:52PM 34.0622 -86.3758 48° Northeast 451 519 33,000  Level Atlanta Center
11:53PM 34.1456 -86.2650 48° Northeast 451 519 33,000  Level Atlanta Center
11:54PM 34.2311 -86.1517 48° Northeast 451 519 33,000 -360 Level Atlanta Center
11:55PM 34.3122 -86.0406 49° Northeast 451 519 32,300 -900 Descending Atlanta Center
11:56PM 34.3956 -85.9294 48° Northeast 445 512 31,300 -1,020 Descending Atlanta Center
11:57PM 34.4786 -85.8203 47° Northeast 445 512 30,300 -1,020 Descending Atlanta Center
11:58PM 34.5658 -85.6986 49° Northeast 440 506 29,300 -1,020 Descending Atlanta Center
11:59PM 34.6508 -85.5842 48° Northeast 440 506 28,300 -1,020 Descending Atlanta Center
12:00AM 34.7356 -85.4669 49° Northeast 440 506 27,300 -1,020 Descending Atlanta Center
12:01AM 34.8183 -85.3519 49° Northeast 445 512 26,300 -1,020 Descending Atlanta Center
12:02AM 34.9050 -85.2292 49° Northeast 456 525 25,300 -960 Descending Atlanta Center
12:03AM 34.9939 -85.1139 47° Northeast 456 525 24,400 -660 Descending Atlanta Center
12:04AM 35.0803 -84.9981 48° Northeast 456 525 24,000 -900 Descending Atlanta Center
12:05AM 35.1667 -84.8847 47° Northeast 456 525 22,700 -1,860 Descending Atlanta Center
12:06AM 35.2425 -84.7839 47° Northeast 456 525 20,300 -2,520 Descending Atlanta Center
12:07AM 35.3203 -84.6803 47° Northeast 434 499 17,700 -2,640 Descending Atlanta Center
12:08AM 35.3978 -84.5789 47° Northeast 411 473 15,100 -2,160 Descending Atlanta Center
12:09AM 35.4692 -84.4825 48° Northeast 397 457 13,400 -1,440 Descending Atlanta Center
12:10AM 35.5425 -84.3833 48° Northeast 391 450 12,300 -1,500 Descending Atlanta Center
12:11AM 35.6094 -84.2967 46° Northeast 371 427 10,400 -2,220 Descending Atlanta Center
12:12AM 35.6661 -84.2203 48° Northeast 331 381 7,900 -2,940 Descending Atlanta Center
12:13AM 35.7100 -84.1386 56° Northeast 300 345 4,600 -2,700 Descending Atlanta Center
12:14AM 35.7494 -84.0719 54° Northeast 267 307 2,500 -1,560 Descending Atlanta Center
12:15AM 35.7808 -84.0311 47° Northeast 211 243 1,500 -1,020 Descending Atlanta Center